首页
METAR-TAF:

METAR-TAF

机场 :

愛丁堡機場

爱丁堡, 苏格兰

纬度: 55-57N, 经度: 003-21W, 海拔: 41米

当前天气观测

该预报发布于28分钟前的08:50 UTC
风速3节,风向东北
温度 6°C
湿度 100%
气压 1000 hPa
能见度10公里或以上
少量云层高于3000英尺

METAR: EGPH 170850Z 05003KT 9999 FEW030 06/06 Q1000

时间: 10:18 (09:18 UTC)

预报

该预报发布于4小时和18分钟前的05:00 UTC
预报有效从17日的 06点(UTC)到 18日的 06点(UTC)
风速8节,风向南转南东
能见度10公里或以上
少量云层高于3000英尺
短暂存在
从 17日的 06点(UTC)到 17日的 08点(UTC)
能見度: 7000
几率 30% :
短暂存在
从 17日的 06点(UTC)到 17日的 07点(UTC)
能見度: 0700
几率 30% :
短暂存在
从 17日的 10点(UTC)到 18日的 06点(UTC)
能見度: 6000
多云层高于1400英尺
阵雨

TAF: EGPH 170500Z 1706/1806 16008KT 9999 FEW030 TEMPO 1706/1708 7000 PROB30 TEMPO 1706/1707 0700 FG PROB30 TEMPO 1710/1806 6000 SHRA BKN014

超过4000个机场的气象观测和天气预报(METAR&TAF报告)。

可查询的气象台以黄色和红色小点在地图上表示。

将鼠标移到小点上方,可查看气象台名称。

然后点击查看天气观测和预报。

如需切换地图:点击带黑十字的绿色按钮放大地图;点击带横线的绿色按钮缩小地图;或者点击绿色箭头查看邻近地区的地图。


METAR-TAF: